Time;durP1;ratioP1;P1;durP2;ratioP2;P2;SDS_P1;SDS_P2;PMS_P1;PMS_P2;Temp;Humidity;BMP_temperature;BMP_pressure;BME280_temperature;BME280_humidity;BME280_pressure;Samples;Min_cycle;Max_cycle;Signal;HPM_P1;HPM_P2
2024/04/03 00:00:56;;;;;;;;;;;;;;;8.83;75.35;95737.64;108528;1280;124595;-89
2024/04/03 00:03:42;;;;;;;;;;;;;;;8.79;75.52;95740.19;108575;1280;22534;-88
2024/04/03 00:06:09;;;;;;;;;;;;;;;8.75;75.43;95742.58;108485;1280;124613;-89
2024/04/03 00:08:35;;;;;;;;;;;;;;;8.73;75.62;95742.29;108650;1280;22547;-89
2024/04/03 00:11:02;;;;;;;;;;;;;;;8.71;75.79;95739.05;108619;1280;22509;-90
2024/04/03 00:13:31;;;;;;;;;;;;;;;8.68;75.93;95734.13;108619;1281;124446;-90
2024/04/03 00:15:57;;;;;;;;;;;;;;;8.66;75.80;95729.04;108555;1273;22531;-90
2024/04/03 00:18:24;;;;;;;;;;;;;;;8.65;76.04;95736.85;108562;1278;124747;-90
2024/04/03 00:21:02;;;;;;;;;;;;;;;8.63;76.10;95736.46;108599;1271;24262;-90
2024/04/03 00:23:29;;;;;;;;;;;;;;;8.62;76.22;95737.27;108650;1278;22500;-89
2024/04/03 00:25:56;;;;;;;;;;;;;;;8.57;76.34;95741.98;108522;1278;124605;-89
2024/04/03 00:28:22;;;;;;;;;;;;;;;8.53;76.57;95750.55;108696;1280;22542;-89
2024/04/03 00:30:48;;;;;;;;;;;;;;;8.50;76.86;95752.04;108523;1263;124602;-89
2024/04/03 00:33:15;;;;;;;;;;;;;;;8.47;77.10;95759.98;108659;1280;22507;-89
2024/04/03 00:35:41;;;;;;;;;;;;;;;8.48;77.09;95749.70;108609;1278;22541;-89
2024/04/03 00:38:07;;;;;;;;;;;;;;;8.49;76.94;95753.38;108462;1278;124385;-89
2024/04/03 00:40:34;;;;;;;;;;;;;;;8.48;77.17;95754.69;108750;1273;22502;-90
2024/04/03 00:43:08;;;;;;;;;;;;;;;8.46;77.27;95759.23;108508;1280;124392;-89
2024/04/03 00:45:34;;;;;;;;;;;;;;;8.41;77.49;95756.91;108646;1278;22781;-89
2024/04/03 00:48:01;;;;;;;;;;;;;;;8.40;77.67;95755.55;108447;1275;124673;-90
2024/04/03 00:50:27;;;;;;;;;;;;;;;8.39;77.58;95755.86;108661;1280;22541;-89
2024/04/03 00:52:53;;;;;;;;;;;;;;;8.41;77.59;95757.19;108623;1280;24291;-91
2024/04/03 00:55:20;;;;;;;;;;;;;;;8.41;77.65;95750.45;108510;1280;124528;-89
2024/04/03 00:57:46;;;;;;;;;;;;;;;8.39;77.77;95754.14;108752;1280;24405;-89
2024/04/03 01:00:12;;;;;;;;;;;;;;;8.37;77.92;95751.05;108526;1280;124561;-89
2024/04/03 01:02:39;;;;;;;;;;;;;;;8.37;78.10;95753.13;108657;1278;24741;-89
2024/04/03 01:05:05;;;;;;;;;;;;;;;8.38;77.87;95750.44;108584;1280;22504;-89
2024/04/03 01:07:32;;;;;;;;;;;;;;;8.42;78.05;95748.43;108523;1281;124409;-90
2024/04/03 01:09:58;;;;;;;;;;;;;;;8.43;77.86;95751.91;108749;1280;22528;-90
2024/04/03 01:12:25;;;;;;;;;;;;;;;8.44;77.88;95749.89;108503;1280;124640;-90
2024/04/03 01:14:51;;;;;;;;;;;;;;;8.46;77.71;95751.06;108599;1271;22681;-91
2024/04/03 01:17:18;;;;;;;;;;;;;;;8.48;77.96;95754.73;108563;1273;22514;-89
2024/04/03 01:19:44;;;;;;;;;;;;;;;8.47;77.75;95749.10;108627;1280;124970;-90
2024/04/03 01:22:12;;;;;;;;;;;;;;;8.46;77.73;95745.93;108616;1275;22591;-89
2024/04/03 01:24:39;;;;;;;;;;;;;;;8.46;77.65;95753.05;108602;1275;124482;-89
2024/04/03 01:27:05;;;;;;;;;;;;;;;8.45;77.89;95752.24;108811;1280;22573;-89
2024/04/03 01:29:33;;;;;;;;;;;;;;;8.43;77.85;95752.50;108698;1278;25267;-89
2024/04/03 01:32:01;;;;;;;;;;;;;;;8.41;77.70;95752.49;108613;1280;124391;-89
2024/04/03 01:34:27;;;;;;;;;;;;;;;8.38;77.76;95748.23;108868;1276;22501;-90
2024/04/03 01:36:54;;;;;;;;;;;;;;;8.35;77.68;95756.54;108674;1272;124486;-89
2024/04/03 01:39:20;;;;;;;;;;;;;;;8.34;78.26;95757.52;108800;1268;24316;-90
2024/04/03 01:41:47;;;;;;;;;;;;;;;8.32;78.56;95750.98;108787;1280;22498;-90
2024/04/03 01:44:13;;;;;;;;;;;;;;;8.33;78.50;95751.71;108740;1280;124209;-90
2024/04/03 01:46:39;;;;;;;;;;;;;;;8.33;78.61;95746.19;108661;1280;22538;-89
2024/04/03 01:49:06;;;;;;;;;;;;;;;8.34;78.61;95748.85;108579;1280;124549;-89
2024/04/03 01:51:32;;;;;;;;;;;;;;;8.34;78.83;95753.66;108785;1280;23217;-89
2024/04/03 01:53:58;;;;;;;;;;;;;;;8.35;78.79;95751.35;108613;1276;124577;-89
2024/04/03 01:56:25;;;;;;;;;;;;;;;8.37;78.90;95748.00;108671;1280;25396;-89
2024/04/03 01:58:51;;;;;;;;;;;;;;;8.39;78.99;95742.91;108812;1280;22509;-89
2024/04/03 02:01:19;;;;;;;;;;;;;;;8.40;79.36;95745.42;108606;1280;124803;-89
2024/04/03 02:03:45;;;;;;;;;;;;;;;8.39;79.17;95743.46;108616;1271;22497;-89
2024/04/03 02:06:12;;;;;;;;;;;;;;;8.42;79.10;95742.05;108545;1280;124603;-90
2024/04/03 02:08:38;;;;;;;;;;;;;;;8.42;79.39;95739.91;108668;1271;22592;-89
2024/04/03 02:11:05;;;;;;;;;;;;;;;8.43;79.49;95741.07;108635;1280;23147;-89
2024/04/03 02:13:31;;;;;;;;;;;;;;;8.43;79.35;95730.80;108501;1271;125030;-89
2024/04/03 02:15:57;;;;;;;;;;;;;;;8.45;79.13;95734.64;108650;1280;22505;-89
2024/04/03 02:18:24;;;;;;;;;;;;;;;8.46;79.48;95730.69;108479;1280;125018;-89
2024/04/03 02:20:50;;;;;;;;;;;;;;;8.46;79.49;95735.05;108705;1274;23212;-89
2024/04/03 02:23:17;;;;;;;;;;;;;;;8.45;79.55;95735.71;108792;1280;22505;-89
2024/04/03 02:25:43;;;;;;;;;;;;;;;8.44;79.39;95732.84;108555;1275;124494;-90
2024/04/03 02:28:09;;;;;;;;;;;;;;;8.43;79.58;95731.23;108652;1276;22500;-89
2024/04/03 02:30:36;;;;;;;;;;;;;;;8.42;79.43;95729.60;108558;1278;124487;-89
2024/04/03 02:33:03;;;;;;;;;;;;;;;8.42;79.44;95730.15;108662;1280;22536;-90
2024/04/03 02:35:29;;;;;;;;;;;;;;;8.43;79.51;95734.70;108622;1280;22551;-89
2024/04/03 02:37:56;;;;;;;;;;;;;;;8.44;79.76;95731.45;108619;1278;124501;-89
2024/04/03 02:40:22;;;;;;;;;;;;;;;8.43;79.81;95734.95;108657;1271;22615;-89
2024/04/03 02:42:48;;;;;;;;;;;;;;;8.43;79.50;95729.20;108588;1281;124738;-89
2024/04/03 02:45:15;;;;;;;;;;;;;;;8.45;79.48;95722.60;108625;1281;25085;-89
2024/04/03 02:47:42;;;;;;;;;;;;;;;8.46;79.60;95721.65;108610;1280;22622;-89
2024/04/03 02:50:08;;;;;;;;;;;;;;;8.46;79.36;95720.53;108563;1280;124424;-89
2024/04/03 02:52:34;;;;;;;;;;;;;;;8.47;79.25;95718.39;108626;1280;22538;-89
2024/04/03 02:55:04;;;;;;;;;;;;;;;8.47;79.34;95715.58;108569;1275;124463;-89
2024/04/03 02:57:33;;;;;;;;;;;;;;;8.48;79.46;95713.77;108772;1280;23185;-89
2024/04/03 03:00:00;;;;;;;;;;;;;;;8.48;79.15;95713.61;108716;1279;124676;-89
2024/04/03 03:02:26;;;;;;;;;;;;;;;8.48;79.11;95714.45;108723;1280;22536;-89
2024/04/03 03:04:52;;;;;;;;;;;;;;;8.49;79.49;95709.36;108772;1280;22648;-89
2024/04/03 03:07:19;;;;;;;;;;;;;;;8.48;79.25;95707.84;108537;1275;124866;-89
2024/04/03 03:09:46;;;;;;;;;;;;;;;8.48;79.32;95710.95;108766;1280;23234;-89
2024/04/03 03:12:17;;;;;;;;;;;;;;;8.48;79.00;95705.45;108692;1279;124667;-89
2024/04/03 03:14:43;;;;;;;;;;;;;;;8.50;79.33;95705.98;108692;1276;22971;-89
2024/04/03 03:17:10;;;;;;;;;;;;;;;8.50;79.23;95697.85;108580;1280;22682;-88
2024/04/03 03:19:36;;;;;;;;;;;;;;;8.50;79.02;95693.95;108637;1279;124490;-88
2024/04/03 03:22:03;;;;;;;;;;;;;;;8.51;79.07;95690.66;108759;1276;23197;-90
2024/04/03 03:24:29;;;;;;;;;;;;;;;8.50;78.99;95692.05;108631;1280;124717;-89
2024/04/03 03:26:55;;;;;;;;;;;;;;;8.50;78.70;95697.30;108745;1280;22687;-89
2024/04/03 03:29:22;;;;;;;;;;;;;;;8.49;78.93;95700.65;108642;1275;22548;-89
2024/04/03 03:31:48;;;;;;;;;;;;;;;8.50;78.59;95693.13;108525;1280;124789;-89
2024/04/03 03:34:14;;;;;;;;;;;;;;;8.52;78.66;95691.58;108612;1278;22555;-88
2024/04/03 03:36:41;;;;;;;;;;;;;;;8.52;78.76;95692.06;108692;1280;124798;-89
2024/04/03 03:39:07;;;;;;;;;;;;;;;8.52;78.66;95692.02;108623;1272;22519;-89
2024/04/03 03:41:33;;;;;;;;;;;;;;;8.52;78.58;95690.38;108637;1280;25398;-88
2024/04/03 03:44:00;;;;;;;;;;;;;;;8.49;78.89;95683.23;108559;1280;124433;-89
2024/04/03 03:46:26;;;;;;;;;;;;;;;8.48;78.71;95692.71;108782;1280;24225;-89
2024/04/03 03:54:22;;;;;;;;;;;;;;;8.39;78.68;95698.91;108607;1280;125009;-89
2024/04/03 03:56:49;;;;;;;;;;;;;;;8.35;78.64;95694.05;108810;1280;22518;-89
2024/04/03 03:59:15;;;;;;;;;;;;;;;8.32;78.70;95691.52;108783;1280;22690;-89
2024/04/03 04:01:42;;;;;;;;;;;;;;;8.27;78.71;95700.10;108559;1280;124385;-88
2024/04/03 04:04:08;;;;;;;;;;;;;;;8.23;78.98;95704.00;108671;1280;23458;-89
2024/04/03 04:06:35;;;;;;;;;;;;;;;8.19;78.96;95710.58;108561;1280;124497;-89
2024/04/03 04:09:01;;;;;;;;;;;;;;;8.17;79.20;95715.54;108631;1278;25357;-89
2024/04/03 04:11:27;;;;;;;;;;;;;;;8.16;78.94;95719.30;108601;1276;22582;-89
2024/04/03 04:13:54;;;;;;;;;;;;;;;8.15;79.17;95722.88;108544;1272;124560;-89
2024/04/03 04:16:20;;;;;;;;;;;;;;;8.14;79.22;95728.13;108798;1280;22587;-89
2024/04/03 04:18:46;;;;;;;;;;;;;;;8.11;79.40;95724.30;108679;1281;124522;-89
2024/04/03 04:21:15;;;;;;;;;;;;;;;8.08;79.49;95724.31;108635;1277;23940;-89
2024/04/03 04:23:41;;;;;;;;;;;;;;;8.05;79.56;95715.92;108647;1276;22663;-89
2024/04/03 04:26:07;;;;;;;;;;;;;;;8.02;79.73;95718.55;108621;1280;124223;-88
2024/04/03 04:28:34;;;;;;;;;;;;;;;7.99;80.05;95719.56;108637;1280;22498;-89
2024/04/03 04:31:01;;;;;;;;;;;;;;;7.99;80.23;95717.56;108568;1279;124573;-89
2024/04/03 04:33:28;;;;;;;;;;;;;;;7.96;80.44;95716.96;108702;1280;22585;-89
2024/04/03 04:35:54;;;;;;;;;;;;;;;7.95;80.50;95717.45;108642;1280;124681;-89
2024/04/03 04:38:21;;;;;;;;;;;;;;;7.94;80.68;95721.74;108657;1271;22509;-89
2024/04/03 04:40:55;;;;;;;;;;;;;;;7.93;80.74;95721.95;108840;1280;22505;-89
2024/04/03 04:43:22;;;;;;;;;;;;;;;7.94;80.91;95721.78;108569;1280;124507;-89
2024/04/03 04:45:57;;;;;;;;;;;;;;;7.93;80.82;95719.71;108662;1280;22514;-89
2024/04/03 04:48:24;;;;;;;;;;;;;;;7.93;80.96;95717.00;108524;1280;124791;-89
2024/04/03 04:50:51;;;;;;;;;;;;;;;7.94;80.97;95719.36;108664;1280;22514;-89
2024/04/03 04:53:18;;;;;;;;;;;;;;;7.94;81.11;95727.73;108770;1277;22487;-90
2024/04/03 04:56:03;;;;;;;;;;;;;;;7.96;80.99;95735.17;108534;1281;124658;-89
2024/04/03 04:58:30;;;;;;;;;;;;;;;7.97;81.07;95736.36;108974;1280;23166;-89
2024/04/03 05:01:03;;;;;;;;;;;;;;;7.98;80.91;95730.34;108632;1280;124800;-90
2024/04/03 05:03:30;;;;;;;;;;;;;;;7.99;80.84;95729.88;108623;1280;22622;-89
2024/04/03 05:05:57;;;;;;;;;;;;;;;8.01;80.62;95739.56;108738;1280;124590;-89
2024/04/03 05:08:23;;;;;;;;;;;;;;;8.02;80.72;95738.94;108670;1280;22498;-90
2024/04/03 05:10:50;;;;;;;;;;;;;;;8.02;80.83;95739.70;108741;1280;22585;-90
2024/04/03 05:13:17;;;;;;;;;;;;;;;8.02;80.73;95738.22;108700;1280;124525;-90
2024/04/03 05:15:45;;;;;;;;;;;;;;;8.05;80.87;95734.94;108653;1281;22550;-90
2024/04/03 05:18:11;;;;;;;;;;;;;;;8.08;81.10;95740.74;108515;1280;124548;-89
2024/04/03 05:20:38;;;;;;;;;;;;;;;8.12;80.77;95743.83;108648;1280;22613;-86
2024/04/03 05:23:05;;;;;;;;;;;;;;;8.16;80.93;95744.11;108636;1280;22522;-87
2024/04/03 05:25:31;;;;;;;;;;;;;;;8.19;80.71;95742.23;108531;1275;124712;-86
2024/04/03 05:27:57;;;;;;;;;;;;;;;8.22;80.55;95746.67;108684;1280;23197;-86
2024/04/03 05:30:27;;;;;;;;;;;;;;;8.25;80.38;95748.98;108474;1281;124762;-86
2024/04/03 05:32:54;;;;;;;;;;;;;;;8.27;80.44;95753.62;108584;1281;22556;-87
2024/04/03 05:35:21;;;;;;;;;;;;;;;8.30;80.73;95755.24;108607;1278;25346;-86
2024/04/03 05:37:47;;;;;;;;;;;;;;;8.32;80.60;95760.54;108426;1281;124594;-86
2024/04/03 05:40:14;;;;;;;;;;;;;;;8.34;80.62;95759.79;108591;1280;22569;-86
2024/04/03 05:42:40;;;;;;;;;;;;;;;8.35;80.69;95763.23;108503;1281;124355;-87
2024/04/03 05:45:07;;;;;;;;;;;;;;;8.37;80.55;95761.98;108614;1281;22537;-86
2024/04/03 05:47:33;;;;;;;;;;;;;;;8.38;80.44;95762.02;108622;1281;22517;-86
2024/04/03 05:50:05;;;;;;;;;;;;;;;8.39;80.43;95758.29;108616;1277;124439;-86
2024/04/03 05:52:33;;;;;;;;;;;;;;;8.41;79.81;95760.25;108688;1280;22511;-87
2024/04/03 05:54:59;;;;;;;;;;;;;;;8.42;79.69;95757.72;108433;1279;124472;-86
2024/04/03 05:57:25;;;;;;;;;;;;;;;8.44;79.71;95769.64;108680;1280;22602;-86
2024/04/03 05:59:52;;;;;;;;;;;;;;;8.45;80.02;95770.36;108566;1275;124523;-86
2024/04/03 06:02:18;;;;;;;;;;;;;;;8.48;79.91;95771.77;108737;1274;23090;-86
2024/04/03 06:04:45;;;;;;;;;;;;;;;8.52;79.90;95772.69;108643;1279;22525;-86
2024/04/03 06:07:12;;;;;;;;;;;;;;;8.57;79.14;95772.92;108631;1268;124402;-87
2024/04/03 06:09:41;;;;;;;;;;;;;;;8.60;79.67;95772.71;108756;1280;26292;-87
2024/04/03 06:12:07;;;;;;;;;;;;;;;8.62;79.54;95773.50;108624;1280;124611;-86
2024/04/03 06:14:34;;;;;;;;;;;;;;;8.64;79.04;95767.23;108655;1280;22536;-86
2024/04/03 06:17:00;;;;;;;;;;;;;;;8.66;79.24;95770.56;108652;1281;22555;-87
2024/04/03 06:19:27;;;;;;;;;;;;;;;8.68;79.31;95776.00;108600;1277;124349;-86
2024/04/03 06:21:53;;;;;;;;;;;;;;;8.70;78.82;95772.95;108613;1280;22498;-86
2024/04/03 06:24:20;;;;;;;;;;;;;;;8.73;79.07;95773.69;108544;1280;124568;-87
2024/04/03 06:26:46;;;;;;;;;;;;;;;8.76;79.03;95777.45;108562;1280;22560;-86
2024/04/03 06:29:12;;;;;;;;;;;;;;;8.79;78.84;95778.77;108691;1275;22526;-87
2024/04/03 06:31:39;;;;;;;;;;;;;;;8.81;79.01;95778.88;108553;1281;124701;-87
2024/04/03 06:34:06;;;;;;;;;;;;;;;8.83;79.29;95777.81;108639;1281;22535;-87
2024/04/03 06:36:32;;;;;;;;;;;;;;;8.86;79.42;95780.75;108444;1277;124701;-87
2024/04/03 06:38:59;;;;;;;;;;;;;;;8.90;79.19;95782.57;108667;1280;22554;-86
2024/04/03 06:41:26;;;;;;;;;;;;;;;8.94;79.35;95784.16;108652;1278;22588;-87
2024/04/03 06:43:52;;;;;;;;;;;;;;;8.96;78.83;95783.84;108568;1276;124574;-86
2024/04/03 06:46:19;;;;;;;;;;;;;;;8.98;78.77;95775.48;108649;1280;22513;-86
2024/04/03 06:48:45;;;;;;;;;;;;;;;9.00;78.72;95765.73;108537;1267;124391;-87
2024/04/03 06:51:11;;;;;;;;;;;;;;;9.01;78.80;95762.48;108552;1276;22503;-86
2024/04/03 06:53:38;;;;;;;;;;;;;;;9.02;78.07;95761.20;108630;1280;24399;-87
2024/04/03 06:56:04;;;;;;;;;;;;;;;9.01;78.06;95762.19;108534;1280;124421;-87
2024/04/03 06:58:40;;;;;;;;;;;;;;;8.99;78.19;95767.11;108627;1281;25394;-86
2024/04/03 07:01:06;;;;;;;;;;;;;;;9.02;78.48;95758.58;108634;1281;124441;-87
2024/04/03 07:03:33;;;;;;;;;;;;;;;9.11;77.92;95757.77;108738;1276;22534;-86
2024/04/03 07:06:00;;;;;;;;;;;;;;;9.20;77.73;95758.87;108519;1280;124577;-86
2024/04/03 07:08:27;;;;;;;;;;;;;;;9.28;77.78;95758.63;108718;1281;22590;-87
2024/04/03 07:10:53;;;;;;;;;;;;;;;9.39;77.12;95758.27;108597;1277;22515;-86
2024/04/03 07:13:23;;;;;;;;;;;;;;;9.48;76.95;95765.34;108518;1276;124521;-86
2024/04/03 07:15:49;;;;;;;;;;;;;;;9.57;76.06;95767.41;108625;1280;24234;-87
2024/04/03 07:18:16;;;;;;;;;;;;;;;9.61;76.63;95767.93;108525;1276;124771;-87
2024/04/03 07:20:42;;;;;;;;;;;;;;;9.67;76.56;95771.12;108667;1281;22503;-87
2024/04/03 07:23:08;;;;;;;;;;;;;;;9.73;76.83;95771.94;108678;1280;22632;-87
2024/04/03 07:25:38;;;;;;;;;;;;;;;9.81;76.20;95768.73;108549;1277;124587;-87
2024/04/03 07:28:13;;;;;;;;;;;;;;;9.88;76.43;95770.19;108686;1281;22503;-87
2024/04/03 07:30:40;;;;;;;;;;;;;;;9.95;76.00;95776.79;108547;1276;124658;-87
2024/04/03 07:33:08;;;;;;;;;;;;;;;9.97;75.39;95777.80;108640;1281;22542;-87
2024/04/03 07:35:34;;;;;;;;;;;;;;;9.97;75.34;95773.95;108659;1278;22578;-86
2024/04/03 07:38:02;;;;;;;;;;;;;;;9.95;74.48;95766.97;108598;1276;124836;-86
2024/04/03 07:40:29;;;;;;;;;;;;;;;9.96;75.26;95771.80;108710;1281;22553;-87
2024/04/03 07:42:56;;;;;;;;;;;;;;;10.03;75.90;95770.26;108578;1280;124533;-86
2024/04/03 07:45:22;;;;;;;;;;;;;;;10.11;75.90;95771.27;108678;1280;22536;-86
2024/04/03 07:47:49;;;;;;;;;;;;;;;10.20;75.53;95773.50;108577;1280;22687;-87
2024/04/03 07:50:16;;;;;;;;;;;;;;;10.29;75.32;95772.25;108669;1280;22544;-87
2024/04/03 07:52:42;;;;;;;;;;;;;;;10.37;74.08;95780.89;108678;1270;22539;-86
2024/04/03 07:55:08;;;;;;;;;;;;;;;10.40;73.00;95774.75;108610;1280;124776;-86
2024/04/03 07:57:36;;;;;;;;;;;;;;;10.46;74.00;95777.86;108586;1280;22500;-87
2024/04/03 08:00:06;;;;;;;;;;;;;;;10.55;73.68;95781.71;108551;1280;124927;-86
2024/04/03 08:02:37;;;;;;;;;;;;;;;10.61;73.71;95786.94;108721;1280;22519;-86
2024/04/03 08:05:04;;;;;;;;;;;;;;;10.64;72.85;95792.34;108780;1280;22566;-86
2024/04/03 08:07:31;;;;;;;;;;;;;;;10.66;73.18;95786.98;108540;1280;125065;-86
2024/04/03 08:10:04;;;;;;;;;;;;;;;10.72;73.05;95789.70;108716;1280;23221;-87
2024/04/03 08:12:30;;;;;;;;;;;;;;;10.76;73.25;95794.73;108566;1276;124979;-87
2024/04/03 08:14:58;;;;;;;;;;;;;;;10.75;72.39;95794.35;108659;1280;22719;-87
2024/04/03 08:17:27;;;;;;;;;;;;;;;10.70;72.29;95802.73;108667;1280;22514;-87
2024/04/03 08:19:54;;;;;;;;;;;;;;;10.68;72.00;95804.17;108569;1280;124832;-87
2024/04/03 08:22:20;;;;;;;;;;;;;;;10.65;72.08;95804.77;108705;1280;22550;-86
2024/04/03 08:24:47;;;;;;;;;;;;;;;10.67;72.74;95801.48;108638;1280;124708;-87
2024/04/03 08:27:14;;;;;;;;;;;;;;;10.73;73.15;95798.34;108818;1274;22537;-87
2024/04/03 08:29:42;;;;;;;;;;;;;;;10.82;73.81;95795.89;108623;1280;22536;-87
2024/04/03 08:32:11;;;;;;;;;;;;;;;10.93;73.96;95798.15;108543;1276;124789;-87
2024/04/03 08:34:37;;;;;;;;;;;;;;;11.01;73.37;95800.35;108652;1280;23047;-87
2024/04/03 08:37:05;;;;;;;;;;;;;;;11.08;73.11;95799.13;108626;1280;125026;-87
2024/04/03 08:39:31;;;;;;;;;;;;;;;11.10;72.37;95796.53;108640;1280;22516;-87
2024/04/03 08:41:58;;;;;;;;;;;;;;;11.16;73.19;95799.73;108530;1275;124967;-86
2024/04/03 08:44:31;;;;;;;;;;;;;;;11.27;73.06;95798.50;108550;1281;22567;-87
2024/04/03 08:46:58;;;;;;;;;;;;;;;11.37;70.80;95797.20;108609;1280;23475;-87
2024/04/03 08:49:31;;;;;;;;;;;;;;;11.34;70.71;95789.52;108650;1280;124497;-86
2024/04/03 08:52:02;;;;;;;;;;;;;;;11.33;70.26;95791.48;108804;1280;22521;-87
2024/04/03 08:54:28;;;;;;;;;;;;;;;11.29;70.09;95791.50;108622;1278;124771;-86
2024/04/03 08:56:55;;;;;;;;;;;;;;;11.19;69.91;95795.69;108702;1275;25556;-87
2024/04/03 08:59:21;;;;;;;;;;;;;;;11.16;70.35;95797.20;108595;1280;22518;-87
2024/04/03 09:01:51;;;;;;;;;;;;;;;11.20;70.57;95793.36;108645;1273;124045;-87
2024/04/03 09:04:17;;;;;;;;;;;;;;;11.23;71.40;95796.11;108712;1275;22535;-86
2024/04/03 09:06:45;;;;;;;;;;;;;;;11.23;70.31;95798.17;108531;1275;124096;-87
2024/04/03 09:09:20;;;;;;;;;;;;;;;11.19;69.35;95795.77;108697;1281;22571;-87
2024/04/03 09:11:50;;;;;;;;;;;;;;;11.16;70.80;95795.29;108698;1281;25440;-87
2024/04/03 09:14:23;;;;;;;;;;;;;;;11.14;70.22;95791.92;108630;1280;22592;-87
2024/04/03 09:16:49;;;;;;;;;;;;;;;11.18;70.86;95793.45;108629;1275;22537;-87
2024/04/03 09:19:15;;;;;;;;;;;;;;;11.32;69.88;95796.33;108583;1275;124102;-87
2024/04/03 09:21:43;;;;;;;;;;;;;;;11.41;70.23;95798.27;108680;1280;22503;-87
2024/04/03 09:24:09;;;;;;;;;;;;;;;11.44;68.81;95793.02;108561;1275;124216;-86
2024/04/03 09:26:45;;;;;;;;;;;;;;;11.42;69.13;95793.02;108624;1271;24444;-87
2024/04/03 09:29:15;;;;;;;;;;;;;;;11.42;69.10;95787.54;108721;1275;22512;-87
2024/04/03 09:31:43;;;;;;;;;;;;;;;11.49;69.73;95780.72;108659;1277;124042;-87
2024/04/03 09:34:12;;;;;;;;;;;;;;;11.63;70.00;95786.59;108566;1280;22552;-87
2024/04/03 09:36:39;;;;;;;;;;;;;;;11.80;69.71;95787.19;108541;1280;124389;-87
2024/04/03 09:39:05;;;;;;;;;;;;;;;11.93;68.67;95793.34;108658;1280;22507;-87
2024/04/03 09:41:32;;;;;;;;;;;;;;;12.00;66.82;95784.38;108726;1280;22511;-87
2024/04/03 09:44:00;;;;;;;;;;;;;;;12.06;67.43;95781.73;108571;1280;124070;-87
2024/04/03 09:46:51;;;;;;;;;;;;;;;12.14;68.12;95788.34;108920;1274;22510;-87
2024/04/03 09:49:18;;;;;;;;;;;;;;;12.26;66.84;95784.65;108648;1280;124053;-87
2024/04/03 09:51:45;;;;;;;;;;;;;;;12.29;66.85;95782.27;108700;1280;23081;-87
2024/04/03 09:54:12;;;;;;;;;;;;;;;12.37;68.03;95781.40;108638;1279;124239;-87
2024/04/03 09:56:38;;;;;;;;;;;;;;;12.44;67.42;95782.05;108626;1280;23774;-87
2024/04/03 09:59:06;;;;;;;;;;;;;;;12.52;67.56;95781.81;108627;1275;22803;-87
2024/04/03 10:01:34;;;;;;;;;;;;;;;12.66;69.44;95777.90;108623;1278;124278;-87
2024/04/03 10:04:04;;;;;;;;;;;;;;;12.80;67.27;95784.23;108675;1273;22514;-86
2024/04/03 10:06:41;;;;;;;;;;;;;;;12.79;66.22;95783.44;108669;1280;124276;-87
2024/04/03 10:09:15;;;;;;;;;;;;;;;12.79;65.32;95778.66;108715;1279;25121;-87
2024/04/03 10:11:45;;;;;;;;;;;;;;;12.80;65.93;95781.91;108709;1280;22669;-87
2024/04/03 10:14:17;;;;;;;;;;;;;;;12.84;65.73;95779.06;108625;1273;123855;-87
2024/04/03 10:16:44;;;;;;;;;;;;;;;12.89;66.47;95774.88;108721;1280;22566;-87
2024/04/03 10:19:10;;;;;;;;;;;;;;;12.97;65.34;95779.66;108652;1280;124086;-87
2024/04/03 10:21:36;;;;;;;;;;;;;;;13.06;65.86;95771.95;108511;1273;220347;-87
2024/04/03 10:24:02;;;;;;;;;;;;;;;13.17;65.33;95775.21;108661;1279;124439;-87
2024/04/03 10:26:29;;;;;;;;;;;;;;;13.21;63.93;95781.23;108747;1280;23460;-87
2024/04/03 10:29:01;;;;;;;;;;;;;;;13.19;62.85;95772.05;108595;1280;23185;-87
2024/04/03 10:31:27;;;;;;;;;;;;;;;13.16;62.78;95772.80;108625;1275;124671;-84
2024/04/03 10:33:54;;;;;;;;;;;;;;;13.19;63.97;95773.81;108605;1280;24238;-85
2024/04/03 10:36:20;;;;;;;;;;;;;;;13.23;62.98;95768.60;108634;1276;124467;-86
2024/04/03 10:38:47;;;;;;;;;;;;;;;13.26;63.01;95775.88;108790;1279;25450;-86
2024/04/03 10:41:13;;;;;;;;;;;;;;;13.27;62.16;95779.25;108803;1272;23040;-85
2024/04/03 10:43:39;;;;;;;;;;;;;;;13.25;62.07;95776.17;108643;1280;124300;-86
2024/04/03 10:46:11;;;;;;;;;;;;;;;13.25;62.23;95773.92;108727;1280;24586;-86
2024/04/03 10:48:41;;;;;;;;;;;;;;;13.26;62.39;95771.59;108527;1280;124288;-86
2024/04/03 10:51:08;;;;;;;;;;;;;;;13.29;62.70;95769.11;108683;1275;22676;-86
2024/04/03 10:53:34;;;;;;;;;;;;;;;13.38;63.81;95768.77;108710;1280;25470;-85
2024/04/03 10:56:01;;;;;;;;;;;;;;;13.49;63.46;95771.55;108626;1275;124228;-85
2024/04/03 10:58:27;;;;;;;;;;;;;;;13.52;61.50;95782.90;108720;1275;22549;-85
2024/04/03 11:00:53;;;;;;;;;;;;;;;13.47;61.60;95786.27;108589;1274;124100;-85
2024/04/03 11:03:21;;;;;;;;;;;;;;;13.45;62.35;95782.55;108561;1275;22516;-85
2024/04/03 11:05:49;;;;;;;;;;;;;;;13.48;61.87;95784.36;108688;1274;22568;-86
2024/04/03 11:08:16;;;;;;;;;;;;;;;13.51;62.34;95780.18;108795;1273;22635;-86
2024/04/03 11:10:42;;;;;;;;;;;;;;;13.65;64.20;95778.24;108664;1274;22684;-86
2024/04/03 11:13:10;;;;;;;;;;;;;;;13.80;63.24;95784.44;108669;1279;124089;-85
2024/04/03 11:15:36;;;;;;;;;;;;;;;13.95;62.68;95783.92;108605;1280;22555;-86
2024/04/03 11:18:03;;;;;;;;;;;;;;;14.06;62.13;95776.90;108578;1273;124237;-85
2024/04/03 11:20:31;;;;;;;;;;;;;;;14.17;62.87;95773.80;108762;1279;22514;-86
2024/04/03 11:22:58;;;;;;;;;;;;;;;14.27;60.49;95779.91;108774;1280;22519;-86
2024/04/03 11:25:26;;;;;;;;;;;;;;;14.18;58.76;95774.48;108617;1279;124100;-85
2024/04/03 11:27:53;;;;;;;;;;;;;;;14.02;57.90;95783.58;108785;1279;22513;-85
2024/04/03 11:30:19;;;;;;;;;;;;;;;13.99;59.89;95778.83;108615;1279;124279;-86
2024/04/03 11:32:46;;;;;;;;;;;;;;;14.08;60.70;95771.93;108590;1280;22503;-85
2024/04/03 11:35:12;;;;;;;;;;;;;;;14.18;59.78;95781.99;108603;1280;22620;-86
2024/04/03 11:37:39;;;;;;;;;;;;;;;14.23;57.64;95778.05;108535;1280;124194;-86
2024/04/03 11:40:05;;;;;;;;;;;;;;;14.22;56.89;95776.13;108578;1280;22569;-86
2024/04/03 11:42:32;;;;;;;;;;;;;;;14.20;58.07;95774.42;108446;1280;124241;-86
2024/04/03 11:44:59;;;;;;;;;;;;;;;14.26;57.27;95775.30;108591;1275;23313;-86
2024/04/03 11:47:25;;;;;;;;;;;;;;;14.24;57.54;95785.13;108704;1275;22504;-86
2024/04/03 11:49:52;;;;;;;;;;;;;;;14.34;58.12;95782.90;108599;1275;124063;-85
2024/04/03 11:52:18;;;;;;;;;;;;;;;14.38;57.61;95785.58;108727;1280;22548;-86
2024/04/03 11:54:45;;;;;;;;;;;;;;;14.39;57.40;95793.44;108593;1280;124043;-85
2024/04/03 11:57:11;;;;;;;;;;;;;;;14.33;56.65;95791.55;108737;1280;23868;-86
2024/04/03 11:59:37;;;;;;;;;;;;;;;14.17;56.50;95799.36;108600;1275;22537;-86
2024/04/03 12:02:04;;;;;;;;;;;;;;;13.97;55.30;95798.62;108532;1281;124185;-86
2024/04/03 12:04:31;;;;;;;;;;;;;;;13.89;56.28;95800.42;108747;1274;25198;-85
2024/04/03 12:06:58;;;;;;;;;;;;;;;13.93;56.82;95801.55;108646;1280;124110;-85
2024/04/03 12:09:25;;;;;;;;;;;;;;;13.93;56.35;95795.44;108525;1280;22500;-86
2024/04/03 12:11:52;;;;;;;;;;;;;;;13.84;56.02;95803.09;108596;1280;124168;-85
2024/04/03 12:14:18;;;;;;;;;;;;;;;13.78;56.88;95803.34;108735;1278;22592;-86
2024/04/03 12:16:51;;;;;;;;;;;;;;;13.87;57.25;95807.84;108526;1280;22519;-86
2024/04/03 12:19:29;;;;;;;;;;;;;;;13.99;57.81;95807.99;108658;1281;124170;-86
2024/04/03 12:21:56;;;;;;;;;;;;;;;14.17;58.78;95806.64;108657;1280;22532;-86
2024/04/03 12:24:22;;;;;;;;;;;;;;;14.24;56.47;95806.67;108501;1262;124268;-86
2024/04/03 12:26:49;;;;;;;;;;;;;;;14.22;57.56;95806.39;108613;1280;22500;-85
2024/04/03 12:29:16;;;;;;;;;;;;;;;14.27;56.79;95805.08;108575;1276;22593;-85
2024/04/03 12:31:43;;;;;;;;;;;;;;;14.35;56.90;95808.66;108650;1273;124034;-86
2024/04/03 12:34:10;;;;;;;;;;;;;;;14.39;55.83;95808.88;108696;1281;22517;-85
2024/04/03 12:36:36;;;;;;;;;;;;;;;14.40;56.18;95808.42;108634;1265;124118;-86
2024/04/03 12:39:08;;;;;;;;;;;;;;;14.39;56.61;95809.48;108681;1274;22518;-86
2024/04/03 12:41:35;;;;;;;;;;;;;;;14.44;56.39;95808.08;108718;1280;25735;-85
2024/04/03 12:44:02;;;;;;;;;;;;;;;14.50;56.72;95814.27;108603;1275;124047;-86